sensor_id;sensor_type;location;lat;lon;timestamp;P1;durP1;ratioP1;P2;durP2;ratioP2
35592;SDS011;64447;52.140;5.602;2023-11-21T00:00:12;24.30;;;14.35;;
35592;SDS011;64447;52.140;5.602;2023-11-21T00:02:40;23.55;;;15.00;;
35592;SDS011;64447;52.140;5.602;2023-11-21T00:05:09;24.00;;;15.00;;
35592;SDS011;64447;52.140;5.602;2023-11-21T00:07:36;23.67;;;13.95;;
35592;SDS011;64447;52.140;5.602;2023-11-21T00:10:03;26.40;;;15.27;;
35592;SDS011;64447;52.140;5.602;2023-11-21T00:12:33;25.10;;;15.88;;
35592;SDS011;64447;52.140;5.602;2023-11-21T00:14:59;22.88;;;14.25;;
35592;SDS011;64447;52.140;5.602;2023-11-21T00:17:25;22.70;;;14.13;;
35592;SDS011;64447;52.140;5.602;2023-11-21T00:19:50;22.33;;;14.23;;
35592;SDS011;64447;52.140;5.602;2023-11-21T00:22:19;21.23;;;13.68;;
35592;SDS011;64447;52.140;5.602;2023-11-21T00:24:45;26.33;;;14.50;;
35592;SDS011;64447;52.140;5.602;2023-11-21T00:27:11;26.63;;;15.40;;
35592;SDS011;64447;52.140;5.602;2023-11-21T00:29:37;23.55;;;14.45;;
35592;SDS011;64447;52.140;5.602;2023-11-21T00:32:04;24.27;;;14.07;;
35592;SDS011;64447;52.140;5.602;2023-11-21T00:34:30;23.15;;;14.18;;
35592;SDS011;64447;52.140;5.602;2023-11-21T00:36:56;25.10;;;14.25;;
35592;SDS011;64447;52.140;5.602;2023-11-21T00:39:22;22.10;;;14.07;;
35592;SDS011;64447;52.140;5.602;2023-11-21T00:41:48;22.77;;;13.65;;
35592;SDS011;64447;52.140;5.602;2023-11-21T00:44:14;26.15;;;14.82;;
35592;SDS011;64447;52.140;5.602;2023-11-21T00:46:41;21.77;;;13.45;;
35592;SDS011;64447;52.140;5.602;2023-11-21T00:49:06;22.95;;;13.98;;
35592;SDS011;64447;52.140;5.602;2023-11-21T00:51:32;23.13;;;14.05;;
35592;SDS011;64447;52.140;5.602;2023-11-21T00:53:58;20.35;;;13.45;;
35592;SDS011;64447;52.140;5.602;2023-11-21T00:56:24;25.10;;;14.32;;
35592;SDS011;64447;52.140;5.602;2023-11-21T00:58:50;23.27;;;13.23;;
35592;SDS011;64447;52.140;5.602;2023-11-21T01:01:17;18.55;;;12.20;;
35592;SDS011;64447;52.140;5.602;2023-11-21T01:03:49;22.88;;;13.73;;
35592;SDS011;64447;52.140;5.602;2023-11-21T01:06:15;25.80;;;13.65;;
35592;SDS011;64447;52.140;5.602;2023-11-21T01:08:41;24.33;;;15.15;;
35592;SDS011;64447;52.140;5.602;2023-11-21T01:11:06;27.58;;;15.43;;
35592;SDS011;64447;52.140;5.602;2023-11-21T01:13:40;22.90;;;14.18;;
35592;SDS011;64447;52.140;5.602;2023-11-21T01:16:07;26.67;;;15.65;;
35592;SDS011;64447;52.140;5.602;2023-11-21T01:18:34;24.35;;;14.70;;
35592;SDS011;64447;52.140;5.602;2023-11-21T01:21:00;29.98;;;15.35;;
35592;SDS011;64447;52.140;5.602;2023-11-21T01:23:26;24.05;;;15.35;;
35592;SDS011;64447;52.140;5.602;2023-11-21T01:25:52;25.20;;;14.35;;
35592;SDS011;64447;52.140;5.602;2023-11-21T01:28:18;24.98;;;14.32;;
35592;SDS011;64447;52.140;5.602;2023-11-21T01:30:44;22.38;;;14.60;;
35592;SDS011;64447;52.140;5.602;2023-11-21T01:33:10;24.48;;;15.45;;
35592;SDS011;64447;52.140;5.602;2023-11-21T01:35:36;23.70;;;14.02;;
35592;SDS011;64447;52.140;5.602;2023-11-21T01:38:02;21.15;;;13.63;;
35592;SDS011;64447;52.140;5.602;2023-11-21T01:40:29;22.02;;;13.80;;
35592;SDS011;64447;52.140;5.602;2023-11-21T01:42:55;23.98;;;14.35;;
35592;SDS011;64447;52.140;5.602;2023-11-21T01:45:22;20.75;;;12.13;;
35592;SDS011;64447;52.140;5.602;2023-11-21T01:47:50;22.70;;;13.55;;
35592;SDS011;64447;52.140;5.602;2023-11-21T01:50:16;18.92;;;13.13;;
35592;SDS011;64447;52.140;5.602;2023-11-21T01:52:43;23.73;;;13.77;;
35592;SDS011;64447;52.140;5.602;2023-11-21T01:55:10;20.10;;;12.98;;
35592;SDS011;64447;52.140;5.602;2023-11-21T01:57:37;21.30;;;13.85;;
35592;SDS011;64447;52.140;5.602;2023-11-21T02:00:03;23.25;;;13.90;;
35592;SDS011;64447;52.140;5.602;2023-11-21T02:02:43;21.23;;;12.73;;
35592;SDS011;64447;52.140;5.602;2023-11-21T02:05:13;23.42;;;13.73;;
35592;SDS011;64447;52.140;5.602;2023-11-21T02:07:40;22.17;;;13.20;;
35592;SDS011;64447;52.140;5.602;2023-11-21T02:10:08;23.02;;;14.13;;
35592;SDS011;64447;52.140;5.602;2023-11-21T02:12:34;21.92;;;14.70;;
35592;SDS011;64447;52.140;5.602;2023-11-21T02:15:03;22.23;;;14.18;;
35592;SDS011;64447;52.140;5.602;2023-11-21T02:17:34;19.40;;;13.80;;
35592;SDS011;64447;52.140;5.602;2023-11-21T02:20:03;22.20;;;14.32;;
35592;SDS011;64447;52.140;5.602;2023-11-21T02:22:31;27.17;;;14.57;;
35592;SDS011;64447;52.140;5.602;2023-11-21T02:25:02;23.00;;;14.70;;
35592;SDS011;64447;52.140;5.602;2023-11-21T02:27:28;22.23;;;15.45;;
35592;SDS011;64447;52.140;5.602;2023-11-21T02:29:54;19.35;;;12.50;;
35592;SDS011;64447;52.140;5.602;2023-11-21T02:32:20;20.75;;;13.70;;
35592;SDS011;64447;52.140;5.602;2023-11-21T02:34:47;24.73;;;14.95;;
35592;SDS011;64447;52.140;5.602;2023-11-21T02:37:13;26.00;;;14.10;;
35592;SDS011;64447;52.140;5.602;2023-11-21T02:39:39;23.63;;;14.80;;
35592;SDS011;64447;52.140;5.602;2023-11-21T02:42:05;20.08;;;13.88;;
35592;SDS011;64447;52.140;5.602;2023-11-21T02:44:30;23.73;;;14.25;;
35592;SDS011;64447;52.140;5.602;2023-11-21T02:46:56;25.00;;;15.55;;
35592;SDS011;64447;52.140;5.602;2023-11-21T02:49:22;24.27;;;13.93;;
35592;SDS011;64447;52.140;5.602;2023-11-21T02:51:48;25.33;;;14.98;;
35592;SDS011;64447;52.140;5.602;2023-11-21T02:54:14;26.98;;;16.35;;
35592;SDS011;64447;52.140;5.602;2023-11-21T02:56:41;24.08;;;14.73;;
35592;SDS011;64447;52.140;5.602;2023-11-21T02:59:07;21.33;;;14.48;;
35592;SDS011;64447;52.140;5.602;2023-11-21T03:01:33;22.52;;;14.57;;
35592;SDS011;64447;52.140;5.602;2023-11-21T03:03:59;23.08;;;14.90;;
35592;SDS011;64447;52.140;5.602;2023-11-21T03:06:25;20.95;;;13.82;;
35592;SDS011;64447;52.140;5.602;2023-11-21T03:08:51;20.35;;;14.30;;
35592;SDS011;64447;52.140;5.602;2023-11-21T03:11:16;23.02;;;14.63;;
35592;SDS011;64447;52.140;5.602;2023-11-21T03:13:42;20.50;;;14.40;;
35592;SDS011;64447;52.140;5.602;2023-11-21T03:16:08;21.88;;;14.38;;
35592;SDS011;64447;52.140;5.602;2023-11-21T03:18:34;23.80;;;14.63;;
35592;SDS011;64447;52.140;5.602;2023-11-21T03:21:00;19.02;;;12.90;;
35592;SDS011;64447;52.140;5.602;2023-11-21T03:23:25;21.90;;;14.02;;
35592;SDS011;64447;52.140;5.602;2023-11-21T03:25:51;20.35;;;12.23;;
35592;SDS011;64447;52.140;5.602;2023-11-21T03:28:16;25.17;;;14.25;;
35592;SDS011;64447;52.140;5.602;2023-11-21T03:30:43;20.67;;;13.82;;
35592;SDS011;64447;52.140;5.602;2023-11-21T03:33:08;21.35;;;14.27;;
35592;SDS011;64447;52.140;5.602;2023-11-21T03:35:34;18.02;;;13.40;;
35592;SDS011;64447;52.140;5.602;2023-11-21T03:38:00;22.02;;;13.57;;
35592;SDS011;64447;52.140;5.602;2023-11-21T03:40:25;22.58;;;13.02;;
35592;SDS011;64447;52.140;5.602;2023-11-21T03:42:51;26.15;;;14.20;;
35592;SDS011;64447;52.140;5.602;2023-11-21T03:45:17;24.85;;;12.93;;
35592;SDS011;64447;52.140;5.602;2023-11-21T03:47:42;21.77;;;13.80;;
35592;SDS011;64447;52.140;5.602;2023-11-21T03:50:08;19.23;;;12.95;;
35592;SDS011;64447;52.140;5.602;2023-11-21T03:52:34;18.80;;;12.48;;
35592;SDS011;64447;52.140;5.602;2023-11-21T03:55:03;19.20;;;13.43;;
35592;SDS011;64447;52.140;5.602;2023-11-21T03:57:29;20.15;;;12.23;;
35592;SDS011;64447;52.140;5.602;2023-11-21T03:59:54;21.58;;;13.60;;
35592;SDS011;64447;52.140;5.602;2023-11-21T04:02:20;21.35;;;12.05;;
35592;SDS011;64447;52.140;5.602;2023-11-21T04:04:46;19.73;;;13.38;;
35592;SDS011;64447;52.140;5.602;2023-11-21T04:07:12;20.75;;;13.02;;
35592;SDS011;64447;52.140;5.602;2023-11-21T04:09:38;19.23;;;13.15;;
35592;SDS011;64447;52.140;5.602;2023-11-21T04:12:04;22.17;;;12.98;;
35592;SDS011;64447;52.140;5.602;2023-11-21T04:14:30;17.92;;;12.60;;
35592;SDS011;64447;52.140;5.602;2023-11-21T04:16:57;17.52;;;11.77;;
35592;SDS011;64447;52.140;5.602;2023-11-21T04:19:23;19.90;;;12.30;;
35592;SDS011;64447;52.140;5.602;2023-11-21T04:21:49;18.77;;;12.07;;
35592;SDS011;64447;52.140;5.602;2023-11-21T04:24:14;20.23;;;12.00;;
35592;SDS011;64447;52.140;5.602;2023-11-21T04:26:40;18.40;;;11.82;;
35592;SDS011;64447;52.140;5.602;2023-11-21T04:29:06;18.75;;;11.68;;
35592;SDS011;64447;52.140;5.602;2023-11-21T04:31:32;19.90;;;12.50;;
35592;SDS011;64447;52.140;5.602;2023-11-21T04:33:58;19.13;;;12.50;;
35592;SDS011;64447;52.140;5.602;2023-11-21T04:36:23;21.50;;;11.93;;
35592;SDS011;64447;52.140;5.602;2023-11-21T04:38:49;20.67;;;11.45;;
35592;SDS011;64447;52.140;5.602;2023-11-21T04:41:15;18.35;;;12.55;;
35592;SDS011;64447;52.140;5.602;2023-11-21T04:43:40;22.67;;;12.10;;
35592;SDS011;64447;52.140;5.602;2023-11-21T04:46:07;22.63;;;12.60;;
35592;SDS011;64447;52.140;5.602;2023-11-21T04:48:33;22.13;;;12.48;;
35592;SDS011;64447;52.140;5.602;2023-11-21T04:50:59;20.48;;;11.98;;
35592;SDS011;64447;52.140;5.602;2023-11-21T04:53:24;17.25;;;12.13;;
35592;SDS011;64447;52.140;5.602;2023-11-21T04:55:50;21.00;;;13.02;;
35592;SDS011;64447;52.140;5.602;2023-11-21T04:58:16;18.50;;;12.77;;
35592;SDS011;64447;52.140;5.602;2023-11-21T05:00:41;18.75;;;13.52;;
35592;SDS011;64447;52.140;5.602;2023-11-21T05:03:07;18.88;;;13.85;;
35592;SDS011;64447;52.140;5.602;2023-11-21T05:05:33;23.08;;;12.93;;
35592;SDS011;64447;52.140;5.602;2023-11-21T05:08:01;22.88;;;13.57;;
35592;SDS011;64447;52.140;5.602;2023-11-21T05:10:28;23.27;;;13.38;;
35592;SDS011;64447;52.140;5.602;2023-11-21T05:12:54;21.42;;;12.52;;
35592;SDS011;64447;52.140;5.602;2023-11-21T05:15:20;20.75;;;13.00;;
35592;SDS011;64447;52.140;5.602;2023-11-21T05:17:46;21.60;;;12.95;;
35592;SDS011;64447;52.140;5.602;2023-11-21T05:20:15;18.85;;;12.52;;
35592;SDS011;64447;52.140;5.602;2023-11-21T05:22:48;20.70;;;11.93;;
35592;SDS011;64447;52.140;5.602;2023-11-21T05:25:15;21.95;;;12.52;;
35592;SDS011;64447;52.140;5.602;2023-11-21T05:27:43;18.58;;;12.10;;
35592;SDS011;64447;52.140;5.602;2023-11-21T05:30:09;26.33;;;13.65;;
35592;SDS011;64447;52.140;5.602;2023-11-21T05:32:37;19.10;;;11.70;;
35592;SDS011;64447;52.140;5.602;2023-11-21T05:35:03;25.92;;;13.45;;
35592;SDS011;64447;52.140;5.602;2023-11-21T05:37:37;17.60;;;11.80;;
35592;SDS011;64447;52.140;5.602;2023-11-21T05:40:05;24.67;;;13.82;;
35592;SDS011;64447;52.140;5.602;2023-11-21T05:42:34;20.20;;;11.63;;
35592;SDS011;64447;52.140;5.602;2023-11-21T05:45:01;23.30;;;13.63;;
35592;SDS011;64447;52.140;5.602;2023-11-21T05:47:39;21.52;;;12.27;;
35592;SDS011;64447;52.140;5.602;2023-11-21T05:50:07;24.10;;;13.60;;
35592;SDS011;64447;52.140;5.602;2023-11-21T05:52:38;20.42;;;13.50;;
35592;SDS011;64447;52.140;5.602;2023-11-21T05:55:05;21.52;;;14.02;;
35592;SDS011;64447;52.140;5.602;2023-11-21T05:57:34;22.50;;;13.55;;
35592;SDS011;64447;52.140;5.602;2023-11-21T06:00:06;25.67;;;14.43;;
35592;SDS011;64447;52.140;5.602;2023-11-21T06:02:37;26.33;;;13.98;;
35592;SDS011;64447;52.140;5.602;2023-11-21T06:05:05;24.20;;;14.38;;
35592;SDS011;64447;52.140;5.602;2023-11-21T06:07:34;27.02;;;15.90;;
35592;SDS011;64447;52.140;5.602;2023-11-21T06:10:01;24.48;;;16.17;;
35592;SDS011;64447;52.140;5.602;2023-11-21T06:12:30;32.22;;;16.55;;
35592;SDS011;64447;52.140;5.602;2023-11-21T06:15:00;26.40;;;16.63;;
35592;SDS011;64447;52.140;5.602;2023-11-21T06:17:38;27.05;;;17.05;;
35592;SDS011;64447;52.140;5.602;2023-11-21T06:20:05;24.30;;;15.38;;
35592;SDS011;64447;52.140;5.602;2023-11-21T06:22:36;29.00;;;15.30;;
35592;SDS011;64447;52.140;5.602;2023-11-21T06:25:03;30.33;;;16.40;;
35592;SDS011;64447;52.140;5.602;2023-11-21T06:27:40;26.98;;;16.60;;
35592;SDS011;64447;52.140;5.602;2023-11-21T06:30:07;24.73;;;14.90;;
35592;SDS011;64447;52.140;5.602;2023-11-21T06:32:35;27.10;;;16.02;;
35592;SDS011;64447;52.140;5.602;2023-11-21T06:35:04;22.98;;;14.85;;
35592;SDS011;64447;52.140;5.602;2023-11-21T06:37:31;25.13;;;14.73;;
35592;SDS011;64447;52.140;5.602;2023-11-21T06:39:57;24.45;;;14.43;;
35592;SDS011;64447;52.140;5.602;2023-11-21T06:42:24;22.25;;;14.88;;
35592;SDS011;64447;52.140;5.602;2023-11-21T06:44:51;25.92;;;15.32;;
35592;SDS011;64447;52.140;5.602;2023-11-21T06:47:17;27.25;;;14.45;;
35592;SDS011;64447;52.140;5.602;2023-11-21T06:49:45;27.65;;;15.98;;
35592;SDS011;64447;52.140;5.602;2023-11-21T06:52:12;27.42;;;15.20;;
35592;SDS011;64447;52.140;5.602;2023-11-21T06:54:38;26.55;;;14.88;;
35592;SDS011;64447;52.140;5.602;2023-11-21T06:57:04;25.17;;;15.20;;
35592;SDS011;64447;52.140;5.602;2023-11-21T06:59:30;24.23;;;14.70;;
35592;SDS011;64447;52.140;5.602;2023-11-21T07:01:56;24.83;;;14.95;;
35592;SDS011;64447;52.140;5.602;2023-11-21T07:04:22;24.35;;;15.23;;
35592;SDS011;64447;52.140;5.602;2023-11-21T07:06:47;22.52;;;15.18;;
35592;SDS011;64447;52.140;5.602;2023-11-21T07:09:13;25.42;;;15.73;;
35592;SDS011;64447;52.140;5.602;2023-11-21T07:11:39;23.90;;;15.43;;
35592;SDS011;64447;52.140;5.602;2023-11-21T07:14:05;26.80;;;15.52;;
35592;SDS011;64447;52.140;5.602;2023-11-21T07:16:34;27.20;;;16.58;;
35592;SDS011;64447;52.140;5.602;2023-11-21T07:19:02;26.33;;;15.52;;
35592;SDS011;64447;52.140;5.602;2023-11-21T07:21:34;22.98;;;15.77;;
35592;SDS011;64447;52.140;5.602;2023-11-21T07:24:01;27.25;;;15.68;;
35592;SDS011;64447;52.140;5.602;2023-11-21T07:26:27;26.95;;;16.63;;
35592;SDS011;64447;52.140;5.602;2023-11-21T07:28:53;25.27;;;15.70;;
35592;SDS011;64447;52.140;5.602;2023-11-21T07:31:19;21.77;;;14.80;;
35592;SDS011;64447;52.140;5.602;2023-11-21T07:33:45;25.63;;;15.52;;
35592;SDS011;64447;52.140;5.602;2023-11-21T07:36:14;24.45;;;14.85;;
35592;SDS011;64447;52.140;5.602;2023-11-21T07:38:41;29.08;;;16.38;;
35592;SDS011;64447;52.140;5.602;2023-11-21T07:41:07;27.75;;;16.48;;
35592;SDS011;64447;52.140;5.602;2023-11-21T07:43:34;22.98;;;14.85;;
35592;SDS011;64447;52.140;5.602;2023-11-21T07:46:00;26.20;;;15.77;;
35592;SDS011;64447;52.140;5.602;2023-11-21T07:48:28;24.23;;;15.27;;
35592;SDS011;64447;52.140;5.602;2023-11-21T07:50:57;25.38;;;15.05;;
35592;SDS011;64447;52.140;5.602;2023-11-21T07:53:26;21.30;;;14.48;;
35592;SDS011;64447;52.140;5.602;2023-11-21T07:55:54;28.95;;;15.57;;
35592;SDS011;64447;52.140;5.602;2023-11-21T07:58:20;20.45;;;13.75;;
35592;SDS011;64447;52.140;5.602;2023-11-21T08:00:45;23.33;;;14.85;;
35592;SDS011;64447;52.140;5.602;2023-11-21T08:03:13;24.85;;;15.90;;
35592;SDS011;64447;52.140;5.602;2023-11-21T08:05:38;25.25;;;15.25;;
35592;SDS011;64447;52.140;5.602;2023-11-21T08:08:04;26.80;;;14.88;;
35592;SDS011;64447;52.140;5.602;2023-11-21T08:10:30;25.35;;;15.45;;
35592;SDS011;64447;52.140;5.602;2023-11-21T08:12:56;22.63;;;14.48;;
35592;SDS011;64447;52.140;5.602;2023-11-21T08:15:21;22.80;;;14.27;;
35592;SDS011;64447;52.140;5.602;2023-11-21T08:17:47;25.65;;;15.88;;
35592;SDS011;64447;52.140;5.602;2023-11-21T08:20:13;25.60;;;16.05;;
35592;SDS011;64447;52.140;5.602;2023-11-21T08:22:41;22.58;;;14.18;;
35592;SDS011;64447;52.140;5.602;2023-11-21T08:25:07;20.85;;;13.82;;
35592;SDS011;64447;52.140;5.602;2023-11-21T08:27:33;20.48;;;13.40;;
35592;SDS011;64447;52.140;5.602;2023-11-21T08:29:59;21.58;;;14.80;;
35592;SDS011;64447;52.140;5.602;2023-11-21T08:32:28;26.77;;;15.57;;
35592;SDS011;64447;52.140;5.602;2023-11-21T08:34:57;27.65;;;15.68;;
35592;SDS011;64447;52.140;5.602;2023-11-21T08:37:23;24.73;;;15.27;;
35592;SDS011;64447;52.140;5.602;2023-11-21T08:39:49;21.13;;;13.68;;
35592;SDS011;64447;52.140;5.602;2023-11-21T08:42:15;22.63;;;15.43;;
35592;SDS011;64447;52.140;5.602;2023-11-21T08:44:40;27.02;;;14.95;;
35592;SDS011;64447;52.140;5.602;2023-11-21T08:47:06;26.90;;;15.27;;
35592;SDS011;64447;52.140;5.602;2023-11-21T08:49:32;25.48;;;16.23;;
35592;SDS011;64447;52.140;5.602;2023-11-21T08:51:58;28.15;;;15.85;;
35592;SDS011;64447;52.140;5.602;2023-11-21T08:54:25;28.13;;;16.38;;
35592;SDS011;64447;52.140;5.602;2023-11-21T08:56:51;25.02;;;14.82;;
35592;SDS011;64447;52.140;5.602;2023-11-21T08:59:17;26.67;;;15.32;;
35592;SDS011;64447;52.140;5.602;2023-11-21T09:01:45;25.25;;;16.52;;
35592;SDS011;64447;52.140;5.602;2023-11-21T09:04:11;27.42;;;17.27;;
35592;SDS011;64447;52.140;5.602;2023-11-21T09:06:37;26.92;;;16.95;;
35592;SDS011;64447;52.140;5.602;2023-11-21T09:09:04;30.48;;;16.77;;
35592;SDS011;64447;52.140;5.602;2023-11-21T09:11:31;28.92;;;17.55;;
35592;SDS011;64447;52.140;5.602;2023-11-21T09:13:59;27.13;;;17.67;;
35592;SDS011;64447;52.140;5.602;2023-11-21T09:16:25;31.33;;;17.67;;
35592;SDS011;64447;52.140;5.602;2023-11-21T09:18:50;27.83;;;17.25;;
35592;SDS011;64447;52.140;5.602;2023-11-21T09:21:16;29.63;;;17.38;;
35592;SDS011;64447;52.140;5.602;2023-11-21T09:23:43;26.70;;;16.65;;
35592;SDS011;64447;52.140;5.602;2023-11-21T09:26:10;24.77;;;16.15;;
35592;SDS011;64447;52.140;5.602;2023-11-21T09:28:35;26.23;;;15.50;;
35592;SDS011;64447;52.140;5.602;2023-11-21T09:31:07;21.77;;;14.68;;
35592;SDS011;64447;52.140;5.602;2023-11-21T09:33:34;25.58;;;15.27;;
35592;SDS011;64447;52.140;5.602;2023-11-21T09:36:00;25.92;;;14.65;;
35592;SDS011;64447;52.140;5.602;2023-11-21T09:38:26;24.63;;;15.02;;
35592;SDS011;64447;52.140;5.602;2023-11-21T09:40:53;25.33;;;15.27;;
35592;SDS011;64447;52.140;5.602;2023-11-21T09:43:20;22.05;;;14.50;;
35592;SDS011;64447;52.140;5.602;2023-11-21T09:45:47;20.50;;;13.75;;
35592;SDS011;64447;52.140;5.602;2023-11-21T09:48:19;19.33;;;12.80;;
35592;SDS011;64447;52.140;5.602;2023-11-21T09:50:47;22.98;;;13.95;;
35592;SDS011;64447;52.140;5.602;2023-11-21T09:55:44;24.98;;;14.73;;
35592;SDS011;64447;52.140;5.602;2023-11-21T09:58:11;23.27;;;14.00;;
35592;SDS011;64447;52.140;5.602;2023-11-21T10:00:49;22.95;;;13.45;;
35592;SDS011;64447;52.140;5.602;2023-11-21T10:03:17;21.23;;;13.70;;
35592;SDS011;64447;52.140;5.602;2023-11-21T10:05:43;20.23;;;14.13;;
35592;SDS011;64447;52.140;5.602;2023-11-21T10:08:12;20.45;;;12.95;;
35592;SDS011;64447;52.140;5.602;2023-11-21T10:10:45;20.45;;;12.82;;
35592;SDS011;64447;52.140;5.602;2023-11-21T10:13:13;20.95;;;13.15;;
35592;SDS011;64447;52.140;5.602;2023-11-21T10:15:41;19.30;;;13.05;;
35592;SDS011;64447;52.140;5.602;2023-11-21T10:18:12;19.70;;;12.88;;
35592;SDS011;64447;52.140;5.602;2023-11-21T10:20:40;21.58;;;13.07;;
35592;SDS011;64447;52.140;5.602;2023-11-21T10:23:06;20.42;;;13.32;;
35592;SDS011;64447;52.140;5.602;2023-11-21T10:25:36;20.05;;;12.65;;
35592;SDS011;64447;52.140;5.602;2023-11-21T10:28:02;21.80;;;12.60;;
35592;SDS011;64447;52.140;5.602;2023-11-21T10:30:33;19.80;;;12.40;;
35592;SDS011;64447;52.140;5.602;2023-11-21T10:33:02;23.77;;;13.90;;
35592;SDS011;64447;52.140;5.602;2023-11-21T10:38:18;21.80;;;12.90;;
35592;SDS011;64447;52.140;5.602;2023-11-21T10:40:49;23.13;;;13.95;;
35592;SDS011;64447;52.140;5.602;2023-11-21T10:43:20;21.88;;;13.30;;
35592;SDS011;64447;52.140;5.602;2023-11-21T10:45:50;24.70;;;12.50;;
35592;SDS011;64447;52.140;5.602;2023-11-21T10:48:16;20.38;;;12.77;;
35592;SDS011;64447;52.140;5.602;2023-11-21T10:50:42;19.92;;;12.02;;
35592;SDS011;64447;52.140;5.602;2023-11-21T10:53:09;16.33;;;10.82;;
35592;SDS011;64447;52.140;5.602;2023-11-21T10:55:36;23.00;;;11.57;;
35592;SDS011;64447;52.140;5.602;2023-11-21T10:58:04;19.38;;;11.75;;
35592;SDS011;64447;52.140;5.602;2023-11-21T11:00:30;20.20;;;11.63;;
35592;SDS011;64447;52.140;5.602;2023-11-21T11:02:58;16.15;;;11.25;;
35592;SDS011;64447;52.140;5.602;2023-11-21T11:05:25;17.00;;;10.90;;
35592;SDS011;64447;52.140;5.602;2023-11-21T11:08:07;20.48;;;11.43;;
35592;SDS011;64447;52.140;5.602;2023-11-21T11:10:33;20.20;;;11.43;;
35592;SDS011;64447;52.140;5.602;2023-11-21T11:13:00;17.20;;;11.02;;
35592;SDS011;64447;52.140;5.602;2023-11-21T11:15:26;20.15;;;11.05;;
35592;SDS011;64447;52.140;5.602;2023-11-21T11:17:53;16.33;;;11.07;;
35592;SDS011;64447;52.140;5.602;2023-11-21T11:20:22;19.60;;;11.68;;
35592;SDS011;64447;52.140;5.602;2023-11-21T11:55:01;21.38;;;11.57;;
35592;SDS011;64447;52.140;5.602;2023-11-21T11:57:31;19.45;;;10.65;;
35592;SDS011;64447;52.140;5.602;2023-11-21T12:00:07;18.67;;;11.20;;
35592;SDS011;64447;52.140;5.602;2023-11-21T12:02:51;22.73;;;12.63;;
35592;SDS011;64447;52.140;5.602;2023-11-21T12:05:19;22.30;;;12.80;;
35592;SDS011;64447;52.140;5.602;2023-11-21T12:10:15;16.55;;;11.45;;
35592;SDS011;64447;52.140;5.602;2023-11-21T12:12:45;17.48;;;11.70;;
35592;SDS011;64447;52.140;5.602;2023-11-21T12:15:13;17.05;;;11.35;;
35592;SDS011;64447;52.140;5.602;2023-11-21T12:17:42;20.25;;;12.00;;
35592;SDS011;64447;52.140;5.602;2023-11-21T12:20:08;20.88;;;12.38;;
35592;SDS011;64447;52.140;5.602;2023-11-21T12:22:52;21.60;;;12.63;;
35592;SDS011;64447;52.140;5.602;2023-11-21T12:25:25;21.17;;;13.38;;
35592;SDS011;64447;52.140;5.602;2023-11-21T12:27:57;21.77;;;12.95;;
35592;SDS011;64447;52.140;5.602;2023-11-21T12:30:27;23.52;;;13.07;;
35592;SDS011;64447;52.140;5.602;2023-11-21T12:32:57;16.73;;;11.48;;
35592;SDS011;64447;52.140;5.602;2023-11-21T12:35:24;16.58;;;10.90;;
35592;SDS011;64447;52.140;5.602;2023-11-21T12:37:55;18.67;;;11.77;;
35592;SDS011;64447;52.140;5.602;2023-11-21T12:40:24;19.73;;;12.15;;
35592;SDS011;64447;52.140;5.602;2023-11-21T12:42:55;22.02;;;13.35;;
35592;SDS011;64447;52.140;5.602;2023-11-21T12:47:55;18.25;;;13.32;;
35592;SDS011;64447;52.140;5.602;2023-11-21T12:50:32;17.38;;;12.00;;
35592;SDS011;64447;52.140;5.602;2023-11-21T12:53:00;17.33;;;11.80;;
35592;SDS011;64447;52.140;5.602;2023-11-21T12:55:29;17.25;;;11.57;;
35592;SDS011;64447;52.140;5.602;2023-11-21T12:58:01;19.58;;;12.77;;
35592;SDS011;64447;52.140;5.602;2023-11-21T13:00:42;18.88;;;12.00;;
35592;SDS011;64447;52.140;5.602;2023-11-21T13:03:10;20.00;;;11.88;;
35592;SDS011;64447;52.140;5.602;2023-11-21T13:05:45;17.40;;;11.65;;
35592;SDS011;64447;52.140;5.602;2023-11-21T13:08:13;20.00;;;11.85;;
35592;SDS011;64447;52.140;5.602;2023-11-21T13:10:44;19.27;;;11.77;;
35592;SDS011;64447;52.140;5.602;2023-11-21T13:13:12;16.88;;;10.55;;
35592;SDS011;64447;52.140;5.602;2023-11-21T13:15:49;16.88;;;10.90;;
35592;SDS011;64447;52.140;5.602;2023-11-21T13:18:17;19.33;;;10.15;;
35592;SDS011;64447;52.140;5.602;2023-11-21T13:20:43;17.00;;;10.52;;
35592;SDS011;64447;52.140;5.602;2023-11-21T13:23:09;14.60;;;9.30;;
35592;SDS011;64447;52.140;5.602;2023-11-21T13:25:41;13.50;;;8.00;;
35592;SDS011;64447;52.140;5.602;2023-11-21T13:28:10;11.13;;;6.95;;
35592;SDS011;64447;52.140;5.602;2023-11-21T13:30:37;11.15;;;6.18;;
35592;SDS011;64447;52.140;5.602;2023-11-21T13:33:05;8.30;;;5.30;;
35592;SDS011;64447;52.140;5.602;2023-11-21T13:35:36;8.55;;;5.13;;
35592;SDS011;64447;52.140;5.602;2023-11-21T13:38:05;8.07;;;4.85;;
35592;SDS011;64447;52.140;5.602;2023-11-21T13:40:32;9.00;;;5.57;;
35592;SDS011;64447;52.140;5.602;2023-11-21T13:43:02;9.80;;;5.47;;
35592;SDS011;64447;52.140;5.602;2023-11-21T13:45:30;9.15;;;5.60;;
35592;SDS011;64447;52.140;5.602;2023-11-21T13:47:56;7.53;;;4.95;;
35592;SDS011;64447;52.140;5.602;2023-11-21T13:50:24;11.80;;;6.50;;
35592;SDS011;64447;52.140;5.602;2023-11-21T13:52:58;10.82;;;5.97;;
35592;SDS011;64447;52.140;5.602;2023-11-21T13:55:28;11.65;;;6.18;;
35592;SDS011;64447;52.140;5.602;2023-11-21T13:57:53;11.57;;;6.72;;
35592;SDS011;64447;52.140;5.602;2023-11-21T14:00:19;13.75;;;7.90;;
35592;SDS011;64447;52.140;5.602;2023-11-21T14:03:03;14.77;;;8.13;;
35592;SDS011;64447;52.140;5.602;2023-11-21T14:05:33;17.40;;;8.85;;
35592;SDS011;64447;52.140;5.602;2023-11-21T14:07:59;15.88;;;9.43;;
35592;SDS011;64447;52.140;5.602;2023-11-21T14:10:32;20.73;;;10.02;;
35592;SDS011;64447;52.140;5.602;2023-11-21T14:13:11;17.50;;;10.38;;
35592;SDS011;64447;52.140;5.602;2023-11-21T14:15:38;21.48;;;11.00;;
35592;SDS011;64447;52.140;5.602;2023-11-21T14:18:07;18.48;;;10.95;;
35592;SDS011;64447;52.140;5.602;2023-11-21T14:20:38;19.15;;;11.23;;
35592;SDS011;64447;52.140;5.602;2023-11-21T14:23:05;22.30;;;11.75;;
35592;SDS011;64447;52.140;5.602;2023-11-21T14:25:34;21.75;;;12.40;;
35592;SDS011;64447;52.140;5.602;2023-11-21T14:28:05;17.73;;;10.80;;
35592;SDS011;64447;52.140;5.602;2023-11-21T14:30:33;20.88;;;10.70;;
35592;SDS011;64447;52.140;5.602;2023-11-21T14:33:01;21.08;;;11.27;;
35592;SDS011;64447;52.140;5.602;2023-11-21T14:35:27;20.83;;;12.10;;
35592;SDS011;64447;52.140;5.602;2023-11-21T14:37:55;19.45;;;11.38;;
35592;SDS011;64447;52.140;5.602;2023-11-21T14:40:21;18.27;;;11.43;;
35592;SDS011;64447;52.140;5.602;2023-11-21T14:42:49;19.08;;;11.30;;
35592;SDS011;64447;52.140;5.602;2023-11-21T14:45:18;24.88;;;13.73;;
35592;SDS011;64447;52.140;5.602;2023-11-21T14:47:45;21.55;;;13.13;;
35592;SDS011;64447;52.140;5.602;2023-11-21T14:50:21;23.88;;;12.77;;
35592;SDS011;64447;52.140;5.602;2023-11-21T14:53:05;22.23;;;14.02;;
35592;SDS011;64447;52.140;5.602;2023-11-21T14:55:34;21.35;;;13.05;;
35592;SDS011;64447;52.140;5.602;2023-11-21T14:58:15;19.17;;;12.52;;
35592;SDS011;64447;52.140;5.602;2023-11-21T15:00:51;18.05;;;12.13;;
35592;SDS011;64447;52.140;5.602;2023-11-21T15:03:26;18.48;;;12.30;;
35592;SDS011;64447;52.140;5.602;2023-11-21T15:06:08;17.23;;;11.30;;
35592;SDS011;64447;52.140;5.602;2023-11-21T15:08:48;16.25;;;10.82;;